Главная страница
METAR-TAF:

METAR-TAF

Аэропорты :

Лаппеэнранта, Финляндия

широта: 61-02-45N, долгота: 028-08-55E, высота над уровнем моря: 106 м

Текущие метеонаблюдения

Эта сводка был подготовлена 14 минут назад, в 13:20 UTC
Ветер 3 Узел переменных направлений
Температура 20°C
Влажность 49%
Давление 1010 hPa
Видимость 10 км и более
Отдельные облака на высоте 4700 фута
Рассеянная облачность на высоте 8200 фута

METAR: EFLP 141320Z AUTO VRB03KT 9999 SCT047 BKN082 20/09 Q1010

Время: 16:34 (13:34 UTC)


TAF: отсутствует

Метеонаблюдения и прогнозы для более 4000 аэропортов (сводки METAR и TAF).

Имеющиеся станции представлены на карте желтыми и красными точками.

Чтобы увидеть название станции, наведите на нее мышь.

Затем щелкните, чтобы увидеть метеонаблюдения и метеопрогнозы.

Управление картой: чтобы увеличить масштаб, щелкните зеленые кнопки с черным крестиком; чтобы уменьшить масштаб, щелкните зеленую кнопку с тире; для просмотра соседних карт щелкайте зеленые стрелки.


METAR-TAF: